sensor_id;sensor_type;location;lat;lon;timestamp;P1;durP1;ratioP1;P2;durP2;ratioP2
74059;SDS011;62414;53.436;8.828;2023-02-16T00:02:09;102.30;;;36.87;;
74059;SDS011;62414;53.436;8.828;2023-02-16T00:04:36;95.07;;;34.47;;
74059;SDS011;62414;53.436;8.828;2023-02-16T00:07:01;93.53;;;34.57;;
74059;SDS011;62414;53.436;8.828;2023-02-16T00:09:27;101.35;;;35.78;;
74059;SDS011;62414;53.436;8.828;2023-02-16T00:11:52;96.63;;;35.53;;
74059;SDS011;62414;53.436;8.828;2023-02-16T00:14:18;94.73;;;35.20;;
74059;SDS011;62414;53.436;8.828;2023-02-16T00:16:44;99.15;;;36.35;;
74059;SDS011;62414;53.436;8.828;2023-02-16T00:19:12;95.60;;;36.10;;
74059;SDS011;62414;53.436;8.828;2023-02-16T00:21:42;96.32;;;35.22;;
74059;SDS011;62414;53.436;8.828;2023-02-16T00:24:07;95.47;;;35.65;;
74059;SDS011;62414;53.436;8.828;2023-02-16T00:26:33;95.33;;;33.43;;
74059;SDS011;62414;53.436;8.828;2023-02-16T00:28:59;100.75;;;36.90;;
74059;SDS011;62414;53.436;8.828;2023-02-16T00:31:25;94.50;;;35.23;;
74059;SDS011;62414;53.436;8.828;2023-02-16T00:33:51;94.65;;;35.00;;
74059;SDS011;62414;53.436;8.828;2023-02-16T00:36:18;96.85;;;34.83;;
74059;SDS011;62414;53.436;8.828;2023-02-16T00:38:45;98.37;;;34.97;;
74059;SDS011;62414;53.436;8.828;2023-02-16T00:41:14;91.90;;;34.60;;
74059;SDS011;62414;53.436;8.828;2023-02-16T00:43:41;92.80;;;34.35;;
74059;SDS011;62414;53.436;8.828;2023-02-16T00:46:07;90.87;;;33.03;;
74059;SDS011;62414;53.436;8.828;2023-02-16T00:48:34;101.03;;;34.67;;
74059;SDS011;62414;53.436;8.828;2023-02-16T00:50:59;87.77;;;33.63;;
74059;SDS011;62414;53.436;8.828;2023-02-16T00:53:24;89.43;;;33.95;;
74059;SDS011;62414;53.436;8.828;2023-02-16T00:55:51;96.03;;;34.63;;
74059;SDS011;62414;53.436;8.828;2023-02-16T00:58:19;100.70;;;33.95;;
74059;SDS011;62414;53.436;8.828;2023-02-16T01:00:47;92.85;;;34.60;;
74059;SDS011;62414;53.436;8.828;2023-02-16T01:03:16;92.63;;;33.47;;
74059;SDS011;62414;53.436;8.828;2023-02-16T01:05:43;88.20;;;32.72;;
74059;SDS011;62414;53.436;8.828;2023-02-16T01:08:09;92.33;;;34.93;;
74059;SDS011;62414;53.436;8.828;2023-02-16T01:10:35;92.10;;;33.13;;
74059;SDS011;62414;53.436;8.828;2023-02-16T01:13:03;84.82;;;32.85;;
74059;SDS011;62414;53.436;8.828;2023-02-16T01:15:29;87.85;;;32.72;;
74059;SDS011;62414;53.436;8.828;2023-02-16T01:17:57;87.78;;;33.92;;
74059;SDS011;62414;53.436;8.828;2023-02-16T01:20:23;87.93;;;32.93;;
74059;SDS011;62414;53.436;8.828;2023-02-16T01:22:50;92.03;;;33.80;;
74059;SDS011;62414;53.436;8.828;2023-02-16T01:25:16;95.93;;;35.80;;
74059;SDS011;62414;53.436;8.828;2023-02-16T01:27:42;89.63;;;33.00;;
74059;SDS011;62414;53.436;8.828;2023-02-16T01:30:11;93.90;;;33.90;;
74059;SDS011;62414;53.436;8.828;2023-02-16T01:32:38;90.57;;;34.53;;
74059;SDS011;62414;53.436;8.828;2023-02-16T01:35:05;88.47;;;33.42;;
74059;SDS011;62414;53.436;8.828;2023-02-16T01:37:31;93.00;;;33.47;;
74059;SDS011;62414;53.436;8.828;2023-02-16T01:39:56;89.07;;;33.33;;
74059;SDS011;62414;53.436;8.828;2023-02-16T01:42:24;99.63;;;33.97;;
74059;SDS011;62414;53.436;8.828;2023-02-16T01:44:58;93.97;;;34.38;;
74059;SDS011;62414;53.436;8.828;2023-02-16T01:47:31;93.05;;;34.90;;
74059;SDS011;62414;53.436;8.828;2023-02-16T01:49:59;88.40;;;33.22;;
74059;SDS011;62414;53.436;8.828;2023-02-16T01:52:26;88.97;;;33.80;;
74059;SDS011;62414;53.436;8.828;2023-02-16T01:54:55;94.50;;;34.70;;
74059;SDS011;62414;53.436;8.828;2023-02-16T01:57:26;96.50;;;35.80;;
74059;SDS011;62414;53.436;8.828;2023-02-16T02:03:33;87.97;;;32.30;;
74059;SDS011;62414;53.436;8.828;2023-02-16T02:05:59;92.57;;;34.07;;
74059;SDS011;62414;53.436;8.828;2023-02-16T02:08:26;93.55;;;34.40;;
74059;SDS011;62414;53.436;8.828;2023-02-16T02:11:03;94.90;;;34.70;;
74059;SDS011;62414;53.436;8.828;2023-02-16T02:13:35;95.20;;;35.40;;
74059;SDS011;62414;53.436;8.828;2023-02-16T02:16:06;93.65;;;34.20;;
74059;SDS011;62414;53.436;8.828;2023-02-16T02:18:33;92.88;;;33.70;;
74059;SDS011;62414;53.436;8.828;2023-02-16T02:21:08;93.40;;;33.13;;
74059;SDS011;62414;53.436;8.828;2023-02-16T02:23:48;90.45;;;33.00;;
74059;SDS011;62414;53.436;8.828;2023-02-16T02:29:39;84.20;;;32.00;;
74059;SDS011;62414;53.436;8.828;2023-02-16T02:32:15;89.78;;;32.92;;
74059;SDS011;62414;53.436;8.828;2023-02-16T02:34:47;93.40;;;33.70;;
74059;SDS011;62414;53.436;8.828;2023-02-16T02:37:25;91.15;;;32.85;;
74059;SDS011;62414;53.436;8.828;2023-02-16T02:39:55;90.90;;;32.75;;
74059;SDS011;62414;53.436;8.828;2023-02-16T02:42:28;90.47;;;32.42;;
74059;SDS011;62414;53.436;8.828;2023-02-16T02:45:00;88.45;;;32.53;;
74059;SDS011;62414;53.436;8.828;2023-02-16T02:47:36;88.73;;;32.07;;
74059;SDS011;62414;53.436;8.828;2023-02-16T02:50:02;87.30;;;33.03;;
74059;SDS011;62414;53.436;8.828;2023-02-16T02:52:43;88.85;;;32.50;;
74059;SDS011;62414;53.436;8.828;2023-02-16T02:55:09;90.15;;;32.85;;
74059;SDS011;62414;53.436;8.828;2023-02-16T02:57:52;86.72;;;32.00;;
74059;SDS011;62414;53.436;8.828;2023-02-16T03:00:18;92.73;;;33.63;;
74059;SDS011;62414;53.436;8.828;2023-02-16T03:02:47;86.50;;;31.95;;
74059;SDS011;62414;53.436;8.828;2023-02-16T03:05:14;91.88;;;33.15;;
74059;SDS011;62414;53.436;8.828;2023-02-16T03:07:42;84.65;;;32.55;;
74059;SDS011;62414;53.436;8.828;2023-02-16T03:10:09;86.75;;;32.42;;
74059;SDS011;62414;53.436;8.828;2023-02-16T03:12:34;83.27;;;31.53;;
74059;SDS011;62414;53.436;8.828;2023-02-16T03:15:01;87.30;;;32.95;;
74059;SDS011;62414;53.436;8.828;2023-02-16T03:17:28;88.40;;;32.90;;
74059;SDS011;62414;53.436;8.828;2023-02-16T03:19:56;87.82;;;33.13;;
74059;SDS011;62414;53.436;8.828;2023-02-16T03:22:22;88.03;;;34.72;;
74059;SDS011;62414;53.436;8.828;2023-02-16T03:24:48;89.85;;;33.85;;
74059;SDS011;62414;53.436;8.828;2023-02-16T03:27:14;87.87;;;32.47;;
74059;SDS011;62414;53.436;8.828;2023-02-16T03:32:47;84.95;;;33.03;;
74059;SDS011;62414;53.436;8.828;2023-02-16T03:35:13;92.20;;;33.43;;
74059;SDS011;62414;53.436;8.828;2023-02-16T03:37:39;91.32;;;33.55;;
74059;SDS011;62414;53.436;8.828;2023-02-16T03:40:05;86.83;;;33.13;;
74059;SDS011;62414;53.436;8.828;2023-02-16T03:42:32;93.90;;;34.03;;
74059;SDS011;62414;53.436;8.828;2023-02-16T03:44:57;95.82;;;34.10;;
74059;SDS011;62414;53.436;8.828;2023-02-16T03:47:23;88.77;;;33.60;;
74059;SDS011;62414;53.436;8.828;2023-02-16T03:49:49;92.33;;;34.30;;
74059;SDS011;62414;53.436;8.828;2023-02-16T03:52:15;90.15;;;33.30;;
74059;SDS011;62414;53.436;8.828;2023-02-16T03:54:40;93.87;;;34.83;;
74059;SDS011;62414;53.436;8.828;2023-02-16T03:57:06;94.53;;;34.20;;
74059;SDS011;62414;53.436;8.828;2023-02-16T03:59:31;96.10;;;34.97;;
74059;SDS011;62414;53.436;8.828;2023-02-16T04:01:57;93.33;;;33.70;;
74059;SDS011;62414;53.436;8.828;2023-02-16T04:04:22;93.60;;;34.50;;
74059;SDS011;62414;53.436;8.828;2023-02-16T04:06:49;90.67;;;34.00;;
74059;SDS011;62414;53.436;8.828;2023-02-16T04:09:14;91.47;;;34.10;;
74059;SDS011;62414;53.436;8.828;2023-02-16T04:11:40;91.20;;;33.23;;
74059;SDS011;62414;53.436;8.828;2023-02-16T04:14:05;91.47;;;34.27;;
74059;SDS011;62414;53.436;8.828;2023-02-16T04:16:31;94.70;;;34.87;;
74059;SDS011;62414;53.436;8.828;2023-02-16T04:18:56;89.40;;;33.13;;
74059;SDS011;62414;53.436;8.828;2023-02-16T04:21:22;94.47;;;33.80;;
74059;SDS011;62414;53.436;8.828;2023-02-16T04:23:48;93.00;;;33.37;;
74059;SDS011;62414;53.436;8.828;2023-02-16T04:26:14;92.10;;;34.50;;
74059;SDS011;62414;53.436;8.828;2023-02-16T04:28:39;93.50;;;34.73;;
74059;SDS011;62414;53.436;8.828;2023-02-16T04:31:05;89.88;;;34.08;;
74059;SDS011;62414;53.436;8.828;2023-02-16T04:33:30;87.07;;;33.93;;
74059;SDS011;62414;53.436;8.828;2023-02-16T04:35:56;95.03;;;35.37;;
74059;SDS011;62414;53.436;8.828;2023-02-16T04:38:21;89.53;;;33.40;;
74059;SDS011;62414;53.436;8.828;2023-02-16T04:40:48;90.70;;;33.40;;
74059;SDS011;62414;53.436;8.828;2023-02-16T04:43:13;87.78;;;33.70;;
74059;SDS011;62414;53.436;8.828;2023-02-16T04:45:39;88.53;;;33.80;;
74059;SDS011;62414;53.436;8.828;2023-02-16T04:48:04;88.00;;;34.50;;
74059;SDS011;62414;53.436;8.828;2023-02-16T04:50:30;89.95;;;34.95;;
74059;SDS011;62414;53.436;8.828;2023-02-16T04:52:55;92.43;;;34.40;;
74059;SDS011;62414;53.436;8.828;2023-02-16T04:55:21;89.90;;;35.27;;
74059;SDS011;62414;53.436;8.828;2023-02-16T04:57:47;92.87;;;35.47;;
74059;SDS011;62414;53.436;8.828;2023-02-16T05:00:13;95.37;;;35.60;;
74059;SDS011;62414;53.436;8.828;2023-02-16T05:02:39;94.78;;;33.83;;
74059;SDS011;62414;53.436;8.828;2023-02-16T05:05:04;95.00;;;34.93;;
74059;SDS011;62414;53.436;8.828;2023-02-16T05:07:30;95.60;;;34.65;;
74059;SDS011;62414;53.436;8.828;2023-02-16T05:09:56;92.57;;;35.50;;
74059;SDS011;62414;53.436;8.828;2023-02-16T05:12:21;91.93;;;34.13;;
74059;SDS011;62414;53.436;8.828;2023-02-16T05:14:48;94.47;;;36.27;;
74059;SDS011;62414;53.436;8.828;2023-02-16T05:17:14;98.75;;;36.08;;
74059;SDS011;62414;53.436;8.828;2023-02-16T05:19:41;97.50;;;35.95;;
74059;SDS011;62414;53.436;8.828;2023-02-16T05:22:08;95.22;;;37.33;;
74059;SDS011;62414;53.436;8.828;2023-02-16T05:24:34;103.53;;;36.50;;
74059;SDS011;62414;53.436;8.828;2023-02-16T05:27:00;96.07;;;36.33;;
74059;SDS011;62414;53.436;8.828;2023-02-16T05:29:26;90.38;;;35.35;;
74059;SDS011;62414;53.436;8.828;2023-02-16T05:31:53;101.10;;;36.90;;
74059;SDS011;62414;53.436;8.828;2023-02-16T05:34:19;95.30;;;35.40;;
74059;SDS011;62414;53.436;8.828;2023-02-16T05:36:45;92.23;;;35.60;;
74059;SDS011;62414;53.436;8.828;2023-02-16T05:39:10;102.40;;;36.63;;
74059;SDS011;62414;53.436;8.828;2023-02-16T05:41:35;99.90;;;36.90;;
74059;SDS011;62414;53.436;8.828;2023-02-16T05:44:02;95.43;;;35.13;;
74059;SDS011;62414;53.436;8.828;2023-02-16T05:46:28;97.32;;;36.50;;
74059;SDS011;62414;53.436;8.828;2023-02-16T05:48:57;93.37;;;34.40;;
74059;SDS011;62414;53.436;8.828;2023-02-16T05:51:24;94.18;;;36.50;;
74059;SDS011;62414;53.436;8.828;2023-02-16T05:53:49;95.90;;;34.23;;
74059;SDS011;62414;53.436;8.828;2023-02-16T05:56:15;94.80;;;35.67;;
74059;SDS011;62414;53.436;8.828;2023-02-16T05:58:41;95.15;;;35.83;;
74059;SDS011;62414;53.436;8.828;2023-02-16T06:01:06;91.70;;;35.13;;
74059;SDS011;62414;53.436;8.828;2023-02-16T06:03:32;94.67;;;35.53;;
74059;SDS011;62414;53.436;8.828;2023-02-16T06:05:59;90.90;;;34.85;;
74059;SDS011;62414;53.436;8.828;2023-02-16T06:08:25;95.43;;;34.73;;
74059;SDS011;62414;53.436;8.828;2023-02-16T06:10:51;95.30;;;35.78;;
74059;SDS011;62414;53.436;8.828;2023-02-16T06:13:18;93.82;;;35.20;;
74059;SDS011;62414;53.436;8.828;2023-02-16T06:15:44;92.45;;;35.70;;
74059;SDS011;62414;53.436;8.828;2023-02-16T06:18:10;93.63;;;35.27;;
74059;SDS011;62414;53.436;8.828;2023-02-16T06:20:36;83.20;;;33.80;;
74059;SDS011;62414;53.436;8.828;2023-02-16T06:23:02;94.00;;;35.80;;
74059;SDS011;62414;53.436;8.828;2023-02-16T06:25:28;87.90;;;34.27;;
74059;SDS011;62414;53.436;8.828;2023-02-16T06:27:53;88.63;;;33.53;;
74059;SDS011;62414;53.436;8.828;2023-02-16T06:30:19;90.57;;;35.07;;
74059;SDS011;62414;53.436;8.828;2023-02-16T06:32:44;87.97;;;34.37;;
74059;SDS011;62414;53.436;8.828;2023-02-16T06:35:10;96.03;;;35.90;;
74059;SDS011;62414;53.436;8.828;2023-02-16T06:37:36;92.27;;;35.67;;
74059;SDS011;62414;53.436;8.828;2023-02-16T06:40:03;89.95;;;34.15;;
74059;SDS011;62414;53.436;8.828;2023-02-16T06:42:28;90.93;;;34.90;;
74059;SDS011;62414;53.436;8.828;2023-02-16T06:44:54;89.28;;;34.88;;
74059;SDS011;62414;53.436;8.828;2023-02-16T06:47:19;90.00;;;35.20;;
74059;SDS011;62414;53.436;8.828;2023-02-16T06:49:45;93.73;;;35.20;;
74059;SDS011;62414;53.436;8.828;2023-02-16T06:52:10;89.40;;;34.97;;
74059;SDS011;62414;53.436;8.828;2023-02-16T06:54:36;84.17;;;34.50;;
74059;SDS011;62414;53.436;8.828;2023-02-16T06:57:02;87.17;;;34.60;;
74059;SDS011;62414;53.436;8.828;2023-02-16T06:59:28;89.53;;;34.15;;
74059;SDS011;62414;53.436;8.828;2023-02-16T07:01:53;92.23;;;35.47;;
74059;SDS011;62414;53.436;8.828;2023-02-16T07:04:19;90.53;;;35.50;;
74059;SDS011;62414;53.436;8.828;2023-02-16T07:06:44;93.33;;;34.27;;
74059;SDS011;62414;53.436;8.828;2023-02-16T07:09:10;91.27;;;34.97;;
74059;SDS011;62414;53.436;8.828;2023-02-16T07:11:35;97.15;;;36.33;;
74059;SDS011;62414;53.436;8.828;2023-02-16T07:14:02;96.80;;;37.20;;
74059;SDS011;62414;53.436;8.828;2023-02-16T07:16:27;92.47;;;35.97;;
74059;SDS011;62414;53.436;8.828;2023-02-16T07:18:53;86.30;;;34.53;;
74059;SDS011;62414;53.436;8.828;2023-02-16T07:21:18;88.50;;;33.57;;
74059;SDS011;62414;53.436;8.828;2023-02-16T07:23:44;85.78;;;34.03;;
74059;SDS011;62414;53.436;8.828;2023-02-16T07:26:09;92.93;;;35.63;;
74059;SDS011;62414;53.436;8.828;2023-02-16T07:28:35;88.13;;;34.63;;
74059;SDS011;62414;53.436;8.828;2023-02-16T07:31:05;88.28;;;34.63;;
74059;SDS011;62414;53.436;8.828;2023-02-16T07:33:32;88.35;;;33.38;;
74059;SDS011;62414;53.436;8.828;2023-02-16T07:35:57;86.63;;;33.37;;
74059;SDS011;62414;53.436;8.828;2023-02-16T07:38:23;87.30;;;34.47;;
74059;SDS011;62414;53.436;8.828;2023-02-16T07:40:48;83.97;;;33.57;;
74059;SDS011;62414;53.436;8.828;2023-02-16T07:43:13;81.38;;;33.10;;
74059;SDS011;62414;53.436;8.828;2023-02-16T07:45:39;86.33;;;34.00;;
74059;SDS011;62414;53.436;8.828;2023-02-16T07:48:06;86.50;;;33.23;;
74059;SDS011;62414;53.436;8.828;2023-02-16T07:50:31;86.95;;;33.70;;
74059;SDS011;62414;53.436;8.828;2023-02-16T07:52:56;90.90;;;34.50;;
74059;SDS011;62414;53.436;8.828;2023-02-16T07:55:25;77.30;;;32.30;;
74059;SDS011;62414;53.436;8.828;2023-02-16T07:57:51;82.93;;;33.08;;
74059;SDS011;62414;53.436;8.828;2023-02-16T08:00:17;85.83;;;33.40;;
74059;SDS011;62414;53.436;8.828;2023-02-16T08:02:43;89.13;;;33.30;;
74059;SDS011;62414;53.436;8.828;2023-02-16T08:05:10;85.00;;;33.40;;
74059;SDS011;62414;53.436;8.828;2023-02-16T08:07:35;83.03;;;33.28;;
74059;SDS011;62414;53.436;8.828;2023-02-16T08:10:00;86.13;;;32.88;;
74059;SDS011;62414;53.436;8.828;2023-02-16T08:12:26;86.57;;;33.63;;
74059;SDS011;62414;53.436;8.828;2023-02-16T08:14:51;82.47;;;33.93;;
74059;SDS011;62414;53.436;8.828;2023-02-16T08:17:17;81.53;;;32.65;;
74059;SDS011;62414;53.436;8.828;2023-02-16T08:19:42;81.20;;;33.73;;
74059;SDS011;62414;53.436;8.828;2023-02-16T08:22:09;83.30;;;32.33;;
74059;SDS011;62414;53.436;8.828;2023-02-16T08:24:35;83.13;;;33.85;;
74059;SDS011;62414;53.436;8.828;2023-02-16T08:27:01;83.83;;;33.70;;
74059;SDS011;62414;53.436;8.828;2023-02-16T08:29:26;82.60;;;32.83;;
74059;SDS011;62414;53.436;8.828;2023-02-16T08:31:52;82.97;;;33.27;;
74059;SDS011;62414;53.436;8.828;2023-02-16T08:34:18;91.82;;;34.40;;
74059;SDS011;62414;53.436;8.828;2023-02-16T08:36:44;78.63;;;32.58;;
74059;SDS011;62414;53.436;8.828;2023-02-16T08:39:12;86.47;;;33.47;;
74059;SDS011;62414;53.436;8.828;2023-02-16T08:41:39;87.85;;;34.90;;
74059;SDS011;62414;53.436;8.828;2023-02-16T08:44:06;81.68;;;32.63;;
74059;SDS011;62414;53.436;8.828;2023-02-16T08:46:32;82.80;;;32.63;;
74059;SDS011;62414;53.436;8.828;2023-02-16T08:48:58;86.18;;;33.53;;
74059;SDS011;62414;53.436;8.828;2023-02-16T08:51:24;76.20;;;32.63;;
74059;SDS011;62414;53.436;8.828;2023-02-16T08:53:50;81.45;;;32.95;;
74059;SDS011;62414;53.436;8.828;2023-02-16T08:56:18;84.70;;;34.13;;
74059;SDS011;62414;53.436;8.828;2023-02-16T08:58:44;80.20;;;32.65;;
74059;SDS011;62414;53.436;8.828;2023-02-16T09:01:09;83.78;;;33.78;;
74059;SDS011;62414;53.436;8.828;2023-02-16T09:03:35;79.57;;;32.77;;
74059;SDS011;62414;53.436;8.828;2023-02-16T09:06:02;79.55;;;32.63;;
74059;SDS011;62414;53.436;8.828;2023-02-16T09:08:28;78.65;;;32.50;;
74059;SDS011;62414;53.436;8.828;2023-02-16T09:10:54;84.93;;;32.00;;
74059;SDS011;62414;53.436;8.828;2023-02-16T09:13:21;76.00;;;31.63;;
74059;SDS011;62414;53.436;8.828;2023-02-16T09:15:46;73.95;;;31.52;;
74059;SDS011;62414;53.436;8.828;2023-02-16T09:18:12;75.00;;;31.43;;
74059;SDS011;62414;53.436;8.828;2023-02-16T09:20:39;69.30;;;30.48;;
74059;SDS011;62414;53.436;8.828;2023-02-16T09:23:06;71.97;;;29.98;;
74059;SDS011;62414;53.436;8.828;2023-02-16T09:25:33;72.70;;;29.90;;
74059;SDS011;62414;53.436;8.828;2023-02-16T09:27:59;72.60;;;30.10;;
74059;SDS011;62414;53.436;8.828;2023-02-16T09:30:25;73.17;;;31.10;;
74059;SDS011;62414;53.436;8.828;2023-02-16T09:32:51;71.32;;;30.58;;
74059;SDS011;62414;53.436;8.828;2023-02-16T09:35:16;77.27;;;31.30;;
74059;SDS011;62414;53.436;8.828;2023-02-16T09:37:42;71.17;;;30.37;;
74059;SDS011;62414;53.436;8.828;2023-02-16T09:40:08;77.60;;;30.90;;
74059;SDS011;62414;53.436;8.828;2023-02-16T09:42:37;76.22;;;31.40;;
74059;SDS011;62414;53.436;8.828;2023-02-16T09:45:09;75.63;;;31.70;;
74059;SDS011;62414;53.436;8.828;2023-02-16T09:47:37;74.45;;;31.25;;
74059;SDS011;62414;53.436;8.828;2023-02-16T09:50:05;70.25;;;30.17;;
74059;SDS011;62414;53.436;8.828;2023-02-16T09:52:38;74.57;;;30.27;;
74059;SDS011;62414;53.436;8.828;2023-02-16T09:55:05;72.45;;;31.35;;
74059;SDS011;62414;53.436;8.828;2023-02-16T09:57:36;72.80;;;30.10;;
74059;SDS011;62414;53.436;8.828;2023-02-16T10:00:05;71.97;;;30.83;;
74059;SDS011;62414;53.436;8.828;2023-02-16T10:02:41;74.65;;;31.85;;
74059;SDS011;62414;53.436;8.828;2023-02-16T10:05:15;73.60;;;30.40;;
74059;SDS011;62414;53.436;8.828;2023-02-16T10:07:46;70.72;;;31.42;;
74059;SDS011;62414;53.436;8.828;2023-02-16T10:10:18;70.95;;;30.77;;
74059;SDS011;62414;53.436;8.828;2023-02-16T10:12:48;68.28;;;30.60;;
74059;SDS011;62414;53.436;8.828;2023-02-16T10:15:17;69.55;;;31.20;;
74059;SDS011;62414;53.436;8.828;2023-02-16T10:17:47;74.87;;;31.30;;
74059;SDS011;62414;53.436;8.828;2023-02-16T10:20:14;73.78;;;31.60;;
74059;SDS011;62414;53.436;8.828;2023-02-16T10:22:42;72.25;;;31.77;;
74059;SDS011;62414;53.436;8.828;2023-02-16T10:25:10;67.63;;;30.55;;
74059;SDS011;62414;53.436;8.828;2023-02-16T10:27:38;73.30;;;31.75;;
74059;SDS011;62414;53.436;8.828;2023-02-16T10:30:12;70.23;;;31.50;;
74059;SDS011;62414;53.436;8.828;2023-02-16T10:32:40;71.20;;;31.00;;
74059;SDS011;62414;53.436;8.828;2023-02-16T10:35:15;76.10;;;32.60;;
74059;SDS011;62414;53.436;8.828;2023-02-16T10:37:47;70.68;;;31.58;;
74059;SDS011;62414;53.436;8.828;2023-02-16T10:40:28;74.00;;;31.95;;
74059;SDS011;62414;53.436;8.828;2023-02-16T10:42:59;75.40;;;31.67;;
74059;SDS011;62414;53.436;8.828;2023-02-16T10:45:30;72.53;;;31.13;;
74059;SDS011;62414;53.436;8.828;2023-02-16T10:47:59;73.88;;;31.73;;
74059;SDS011;62414;53.436;8.828;2023-02-16T10:50:25;74.03;;;32.00;;
74059;SDS011;62414;53.436;8.828;2023-02-16T10:52:55;78.28;;;33.03;;
74059;SDS011;62414;53.436;8.828;2023-02-16T10:55:22;74.87;;;31.50;;
74059;SDS011;62414;53.436;8.828;2023-02-16T10:57:49;78.72;;;32.20;;
74059;SDS011;62414;53.436;8.828;2023-02-16T11:00:18;82.23;;;32.97;;
74059;SDS011;62414;53.436;8.828;2023-02-16T11:02:48;77.30;;;32.53;;
74059;SDS011;62414;53.436;8.828;2023-02-16T11:07:58;78.32;;;32.55;;
74059;SDS011;62414;53.436;8.828;2023-02-16T11:10:32;82.10;;;33.83;;
74059;SDS011;62414;53.436;8.828;2023-02-16T11:12:59;82.67;;;34.03;;
74059;SDS011;62414;53.436;8.828;2023-02-16T11:15:25;80.00;;;33.47;;
74059;SDS011;62414;53.436;8.828;2023-02-16T11:17:51;83.73;;;33.60;;
74059;SDS011;62414;53.436;8.828;2023-02-16T11:20:27;83.75;;;34.00;;
74059;SDS011;62414;53.436;8.828;2023-02-16T11:23:02;87.63;;;33.88;;
74059;SDS011;62414;53.436;8.828;2023-02-16T11:25:37;82.80;;;33.38;;
74059;SDS011;62414;53.436;8.828;2023-02-16T11:28:02;89.20;;;34.27;;
74059;SDS011;62414;53.436;8.828;2023-02-16T11:30:30;89.93;;;35.05;;
74059;SDS011;62414;53.436;8.828;2023-02-16T11:32:57;85.23;;;33.70;;
74059;SDS011;62414;53.436;8.828;2023-02-16T11:35:24;88.13;;;34.58;;
74059;SDS011;62414;53.436;8.828;2023-02-16T11:37:50;87.63;;;34.73;;
74059;SDS011;62414;53.436;8.828;2023-02-16T11:40:18;92.90;;;37.63;;
74059;SDS011;62414;53.436;8.828;2023-02-16T11:42:47;96.32;;;37.88;;
74059;SDS011;62414;53.436;8.828;2023-02-16T11:45:20;93.73;;;35.50;;
74059;SDS011;62414;53.436;8.828;2023-02-16T11:47:51;92.18;;;35.03;;
74059;SDS011;62414;53.436;8.828;2023-02-16T11:50:18;91.20;;;34.97;;
74059;SDS011;62414;53.436;8.828;2023-02-16T11:52:45;92.10;;;35.85;;
74059;SDS011;62414;53.436;8.828;2023-02-16T11:55:18;91.85;;;35.53;;
74059;SDS011;62414;53.436;8.828;2023-02-16T11:57:46;101.17;;;37.23;;
74059;SDS011;62414;53.436;8.828;2023-02-16T12:00:13;92.50;;;37.03;;
74059;SDS011;62414;53.436;8.828;2023-02-16T12:05:43;96.10;;;36.78;;
74059;SDS011;62414;53.436;8.828;2023-02-16T12:08:18;100.35;;;36.67;;
74059;SDS011;62414;53.436;8.828;2023-02-16T12:10:56;101.00;;;36.60;;
74059;SDS011;62414;53.436;8.828;2023-02-16T12:13:28;99.22;;;36.65;;
74059;SDS011;62414;53.436;8.828;2023-02-16T12:15:58;106.63;;;38.33;;
74059;SDS011;62414;53.436;8.828;2023-02-16T12:18:31;98.57;;;37.05;;
74059;SDS011;62414;53.436;8.828;2023-02-16T12:21:03;102.35;;;37.20;;
74059;SDS011;62414;53.436;8.828;2023-02-16T12:23:35;101.10;;;37.00;;
74059;SDS011;62414;53.436;8.828;2023-02-16T12:26:12;108.50;;;37.50;;
74059;SDS011;62414;53.436;8.828;2023-02-16T12:28:53;108.00;;;38.50;;
74059;SDS011;62414;53.436;8.828;2023-02-16T12:31:24;108.75;;;39.85;;
74059;SDS011;62414;53.436;8.828;2023-02-16T12:33:55;119.50;;;41.58;;
74059;SDS011;62414;53.436;8.828;2023-02-16T12:36:28;116.43;;;41.53;;
74059;SDS011;62414;53.436;8.828;2023-02-16T12:38:58;124.70;;;41.58;;
74059;SDS011;62414;53.436;8.828;2023-02-16T12:41:31;128.83;;;43.30;;
74059;SDS011;62414;53.436;8.828;2023-02-16T12:44:07;129.57;;;44.30;;
74059;SDS011;62414;53.436;8.828;2023-02-16T12:46:38;141.10;;;45.50;;
74059;SDS011;62414;53.436;8.828;2023-02-16T12:49:06;144.05;;;47.72;;
74059;SDS011;62414;53.436;8.828;2023-02-16T12:51:40;146.00;;;46.53;;
74059;SDS011;62414;53.436;8.828;2023-02-16T12:54:08;144.70;;;45.93;;
74059;SDS011;62414;53.436;8.828;2023-02-16T12:56:41;149.15;;;48.60;;
74059;SDS011;62414;53.436;8.828;2023-02-16T12:59:14;147.85;;;47.67;;
74059;SDS011;62414;53.436;8.828;2023-02-16T13:01:41;135.15;;;46.25;;
74059;SDS011;62414;53.436;8.828;2023-02-16T13:04:12;144.10;;;47.87;;
74059;SDS011;62414;53.436;8.828;2023-02-16T13:06:44;139.67;;;46.73;;
74059;SDS011;62414;53.436;8.828;2023-02-16T13:09:17;142.55;;;48.88;;
74059;SDS011;62414;53.436;8.828;2023-02-16T13:11:51;144.15;;;47.50;;
74059;SDS011;62414;53.436;8.828;2023-02-16T13:14:19;137.57;;;47.70;;
74059;SDS011;62414;53.436;8.828;2023-02-16T13:16:48;143.40;;;49.47;;
74059;SDS011;62414;53.436;8.828;2023-02-16T13:19:15;139.73;;;48.83;;
74059;SDS011;62414;53.436;8.828;2023-02-16T13:21:53;131.88;;;47.45;;
74059;SDS011;62414;53.436;8.828;2023-02-16T13:24:33;143.05;;;47.60;;
74059;SDS011;62414;53.436;8.828;2023-02-16T13:27:11;149.30;;;48.47;;
74059;SDS011;62414;53.436;8.828;2023-02-16T13:29:50;137.18;;;48.03;;
74059;SDS011;62414;53.436;8.828;2023-02-16T13:32:24;141.50;;;47.70;;
74059;SDS011;62414;53.436;8.828;2023-02-16T13:35:15;136.90;;;47.30;;
74059;SDS011;62414;53.436;8.828;2023-02-16T13:38:04;137.27;;;47.08;;
74059;SDS011;62414;53.436;8.828;2023-02-16T13:40:50;133.37;;;46.90;;
74059;SDS011;62414;53.436;8.828;2023-02-16T13:43:33;137.95;;;47.03;;
74059;SDS011;62414;53.436;8.828;2023-02-16T13:46:02;136.38;;;46.63;;
74059;SDS011;62414;53.436;8.828;2023-02-16T13:48:29;142.50;;;46.58;;
74059;SDS011;62414;53.436;8.828;2023-02-16T13:51:00;141.52;;;48.40;;
74059;SDS011;62414;53.436;8.828;2023-02-16T13:53:29;133.60;;;47.93;;
74059;SDS011;62414;53.436;8.828;2023-02-16T13:56:11;144.65;;;50.08;;
74059;SDS011;62414;53.436;8.828;2023-02-16T13:58:45;129.57;;;46.15;;
74059;SDS011;62414;53.436;8.828;2023-02-16T14:03:59;124.95;;;45.10;;
74059;SDS011;62414;53.436;8.828;2023-02-16T14:06:29;124.67;;;45.07;;
74059;SDS011;62414;53.436;8.828;2023-02-16T14:12:11;123.18;;;44.75;;
74059;SDS011;62414;53.436;8.828;2023-02-16T14:14:44;130.38;;;45.47;;
74059;SDS011;62414;53.436;8.828;2023-02-16T14:17:22;131.60;;;46.20;;
74059;SDS011;62414;53.436;8.828;2023-02-16T14:19:49;122.80;;;45.20;;
74059;SDS011;62414;53.436;8.828;2023-02-16T14:22:17;122.75;;;44.33;;
74059;SDS011;62414;53.436;8.828;2023-02-16T14:24:49;116.72;;;43.90;;
74059;SDS011;62414;53.436;8.828;2023-02-16T14:27:20;134.07;;;48.38;;
74059;SDS011;62414;53.436;8.828;2023-02-16T14:30:11;134.25;;;47.58;;
74059;SDS011;62414;53.436;8.828;2023-02-16T14:32:41;132.97;;;48.17;;
74059;SDS011;62414;53.436;8.828;2023-02-16T14:35:13;142.88;;;47.72;;
74059;SDS011;62414;53.436;8.828;2023-02-16T14:37:40;140.80;;;49.22;;
74059;SDS011;62414;53.436;8.828;2023-02-16T14:40:16;151.85;;;50.40;;
74059;SDS011;62414;53.436;8.828;2023-02-16T14:42:45;144.80;;;50.13;;
74059;SDS011;62414;53.436;8.828;2023-02-16T14:45:25;145.23;;;48.93;;
74059;SDS011;62414;53.436;8.828;2023-02-16T14:48:28;140.68;;;48.67;;